createdAt,value
2023-03-04T00:00:11.433Z,73.76
2023-03-04T00:02:59.629Z,74.02
2023-03-04T00:05:28.001Z,73.83
2023-03-04T00:07:56.027Z,74.22
2023-03-04T00:10:24.776Z,74.16
2023-03-04T00:12:52.851Z,74.41
2023-03-04T00:15:22.471Z,74.37
2023-03-04T00:17:50.656Z,74.69
2023-03-04T00:20:19.113Z,75.00
2023-03-04T00:22:48.087Z,75.17
2023-03-04T00:25:16.657Z,75.33
2023-03-04T00:27:44.714Z,75.56
2023-03-04T00:30:13.375Z,75.63
2023-03-04T00:32:42.765Z,75.63
2023-03-04T00:35:11.073Z,76.02
2023-03-04T00:37:39.151Z,76.12
2023-03-04T00:40:08.261Z,76.59
2023-03-04T00:42:36.382Z,76.28
2023-03-04T00:45:05.204Z,76.22
2023-03-04T00:47:33.289Z,76.42
2023-03-04T00:50:03.060Z,76.66
2023-03-04T00:52:31.185Z,76.72
2023-03-04T00:54:59.419Z,76.95
2023-03-04T00:57:27.477Z,77.06
2023-03-04T00:59:55.689Z,77.34
2023-03-04T01:02:24.952Z,77.42
2023-03-04T01:04:54.683Z,77.61
2023-03-04T01:07:24.549Z,77.44
2023-03-04T01:09:52.958Z,77.43
2023-03-04T01:12:20.993Z,77.48
2023-03-04T01:14:50.613Z,77.37
2023-03-04T01:17:18.937Z,77.18
2023-03-04T01:19:47.318Z,77.16
2023-03-04T01:22:16.720Z,77.40
2023-03-04T01:24:46.392Z,77.35
2023-03-04T01:27:14.432Z,77.47
2023-03-04T01:29:42.759Z,77.63
2023-03-04T01:32:10.827Z,77.55
2023-03-04T01:34:39.243Z,77.83
2023-03-04T01:37:07.339Z,77.95
2023-03-04T01:39:35.628Z,78.02
2023-03-04T01:42:05.254Z,78.10
2023-03-04T01:44:33.600Z,78.40
2023-03-04T01:47:01.591Z,78.82
2023-03-04T01:49:29.901Z,78.86
2023-03-04T01:51:58.067Z,79.06
2023-03-04T01:54:26.336Z,78.67
2023-03-04T01:56:54.431Z,78.69
2023-03-04T01:59:25.400Z,78.60
2023-03-04T02:01:55.032Z,78.58
2023-03-04T02:04:25.976Z,78.63
2023-03-04T02:06:54.364Z,78.52
2023-03-04T02:09:23.215Z,78.44
2023-03-04T02:11:52.253Z,78.54
2023-03-04T02:14:21.692Z,78.85
2023-03-04T02:16:51.523Z,78.69
2023-03-04T02:19:25.853Z,78.69
2023-03-04T02:21:53.878Z,79.01
2023-03-04T02:24:28.334Z,79.21
2023-03-04T02:26:57.815Z,79.34
2023-03-04T02:29:26.195Z,79.20
2023-03-04T02:31:55.392Z,79.88
2023-03-04T02:34:25.582Z,79.74
2023-03-04T02:36:55.600Z,79.84
2023-03-04T02:39:29.232Z,79.70
2023-03-04T02:41:59.458Z,79.56
2023-03-04T02:44:31.584Z,79.84
2023-03-04T02:47:00.056Z,79.59
2023-03-04T02:49:30.055Z,79.74
2023-03-04T02:52:02.467Z,79.33
2023-03-04T02:54:31.179Z,79.22
2023-03-04T02:57:03.151Z,79.39
2023-03-04T02:59:34.509Z,79.29
2023-03-04T03:02:02.777Z,79.62
2023-03-04T03:04:31.275Z,79.53
2023-03-04T03:06:59.338Z,79.82
2023-03-04T03:09:27.916Z,79.54
2023-03-04T03:11:57.469Z,80.05
2023-03-04T03:14:29.172Z,79.90
2023-03-04T03:16:57.446Z,80.25
2023-03-04T03:19:25.794Z,80.38
2023-03-04T03:21:55.111Z,80.58
2023-03-04T03:24:23.384Z,80.45
2023-03-04T03:26:51.423Z,80.32
2023-03-04T03:29:19.919Z,80.42
2023-03-04T03:31:49.592Z,79.75
2023-03-04T03:34:18.004Z,79.98
2023-03-04T03:36:46.160Z,80.54
2023-03-04T03:39:15.590Z,80.63
2023-03-04T03:41:43.661Z,80.51
2023-03-04T03:44:12.044Z,80.47
2023-03-04T03:46:40.244Z,80.61
2023-03-04T03:49:09.866Z,80.65
2023-03-04T03:51:37.870Z,80.75
2023-03-04T03:54:06.176Z,81.06
2023-03-04T03:56:34.148Z,81.01
2023-03-04T03:59:02.630Z,80.95
2023-03-04T04:01:30.724Z,81.03
2023-03-04T04:03:59.006Z,80.67
2023-03-04T04:06:28.699Z,80.92
2023-03-04T04:08:57.008Z,80.84
2023-03-04T04:11:25.060Z,80.74
2023-03-04T04:13:53.356Z,80.92
2023-03-04T04:16:21.538Z,80.85
2023-03-04T04:18:49.875Z,80.77
2023-03-04T04:21:17.955Z,80.62
2023-03-04T04:23:47.564Z,81.30
2023-03-04T04:26:15.630Z,81.15
2023-03-04T04:28:43.914Z,81.39
2023-03-04T04:31:12.057Z,81.75
2023-03-04T04:33:40.379Z,81.92
2023-03-04T04:36:10.960Z,82.58
2023-03-04T04:38:39.205Z,82.12
2023-03-04T04:41:17.682Z,81.95
2023-03-04T04:43:45.935Z,82.27
2023-03-04T04:46:14.014Z,81.73
2023-03-04T04:48:42.360Z,82.30
2023-03-04T04:51:10.407Z,81.97
2023-03-04T04:53:38.926Z,81.68
2023-03-04T04:56:13.101Z,81.28
2023-03-04T04:58:41.609Z,82.00
2023-03-04T05:01:09.800Z,82.54
2023-03-04T05:03:38.915Z,83.04
2023-03-04T05:06:08.874Z,82.66
2023-03-04T05:08:37.385Z,83.22
2023-03-04T05:11:06.708Z,82.71
2023-03-04T05:13:36.324Z,82.52
2023-03-04T05:16:05.162Z,82.03
2023-03-04T05:18:33.533Z,81.66
2023-03-04T05:21:03.157Z,81.32
2023-03-04T05:23:33.822Z,81.01
2023-03-04T05:26:02.042Z,80.77
2023-03-04T05:28:30.742Z,80.10
2023-03-04T05:31:00.680Z,80.43
2023-03-04T05:33:29.125Z,80.77
2023-03-04T05:35:57.384Z,80.63
2023-03-04T05:38:26.923Z,80.47
2023-03-04T05:40:57.880Z,80.48
2023-03-04T05:43:26.387Z,80.23
2023-03-04T05:45:54.433Z,80.59
2023-03-04T05:48:24.256Z,80.30
2023-03-04T05:50:54.742Z,79.79
2023-03-04T05:53:23.131Z,79.46
2023-03-04T05:55:51.421Z,79.31
2023-03-04T05:58:20.136Z,79.57
2023-03-04T06:00:48.646Z,79.79
2023-03-04T06:03:17.643Z,79.66
2023-03-04T06:05:47.086Z,79.04
2023-03-04T06:08:16.656Z,79.08
2023-03-04T06:10:44.683Z,78.93
2023-03-04T06:13:13.144Z,78.66
2023-03-04T06:15:41.575Z,78.70
2023-03-04T06:18:10.142Z,78.35
2023-03-04T06:20:38.502Z,78.05
2023-03-04T06:23:08.266Z,77.47
2023-03-04T06:25:36.470Z,77.34
2023-03-04T06:28:04.942Z,77.53
2023-03-04T06:30:32.969Z,77.19
2023-03-04T06:33:01.247Z,76.99
2023-03-04T06:35:29.508Z,76.73
2023-03-04T06:37:57.789Z,76.60
2023-03-04T06:40:27.263Z,76.28
2023-03-04T06:42:55.651Z,76.21
2023-03-04T06:45:23.724Z,76.06
2023-03-04T06:47:51.982Z,75.88
2023-03-04T06:50:20.292Z,76.29
2023-03-04T06:52:49.354Z,76.99
2023-03-04T06:55:17.565Z,76.43
2023-03-04T06:57:48.628Z,76.59
2023-03-04T07:00:18.117Z,76.35
2023-03-04T07:02:46.503Z,76.22
2023-03-04T07:05:15.145Z,76.92
2023-03-04T07:07:43.477Z,76.14
2023-03-04T07:10:12.496Z,75.33
2023-03-04T07:12:40.851Z,75.92
2023-03-04T07:15:11.535Z,75.99
2023-03-04T07:17:39.870Z,75.44
2023-03-04T07:20:08.785Z,75.13
2023-03-04T07:22:37.279Z,75.19
2023-03-04T07:25:06.510Z,75.33
2023-03-04T07:27:34.923Z,75.25
2023-03-04T07:30:03.238Z,75.53
2023-03-04T07:32:34.422Z,75.37
2023-03-04T07:35:03.477Z,75.07
2023-03-04T07:37:31.922Z,75.06
2023-03-04T07:40:00.006Z,75.37
2023-03-04T07:42:28.810Z,76.66
2023-03-04T07:45:05.433Z,77.02
2023-03-04T07:47:35.169Z,76.75
2023-03-04T07:50:03.443Z,76.77
2023-03-04T07:52:31.778Z,76.77
2023-03-04T07:54:59.831Z,75.72
2023-03-04T07:57:28.141Z,75.64
2023-03-04T07:59:56.214Z,75.85
2023-03-04T08:02:24.608Z,75.72
2023-03-04T08:04:54.128Z,75.97
2023-03-04T08:07:22.490Z,75.83
2023-03-04T08:09:50.732Z,76.68
2023-03-04T08:12:19.248Z,76.33
2023-03-04T08:14:47.483Z,76.88
2023-03-04T08:17:15.937Z,76.98
2023-03-04T08:19:44.005Z,78.02
2023-03-04T08:22:13.779Z,78.50
2023-03-04T08:24:41.827Z,77.84
2023-03-04T08:27:10.328Z,79.15
2023-03-04T08:29:38.406Z,78.72
2023-03-04T08:32:07.204Z,78.26
2023-03-04T08:34:35.346Z,78.18
2023-03-04T08:37:03.675Z,78.15
2023-03-04T08:39:33.303Z,77.74
2023-03-04T08:42:01.825Z,77.59
2023-03-04T08:44:29.882Z,76.96
2023-03-04T08:46:58.402Z,77.18
2023-03-04T08:49:26.468Z,76.72
2023-03-04T08:51:54.823Z,76.58
2023-03-04T08:54:22.866Z,76.31
2023-03-04T08:56:52.496Z,75.90
2023-03-04T08:59:20.617Z,76.38
2023-03-04T09:01:48.976Z,75.86
2023-03-04T09:04:17.067Z,75.55
2023-03-04T09:06:45.389Z,75.69
2023-03-04T09:09:13.425Z,75.68
2023-03-04T09:11:41.796Z,75.47
2023-03-04T09:14:11.186Z,75.03
2023-03-04T09:16:39.441Z,75.01
2023-03-04T09:19:07.529Z,75.89
2023-03-04T09:21:35.899Z,76.08
2023-03-04T09:24:04.235Z,75.84
2023-03-04T09:26:32.647Z,75.94
2023-03-04T09:29:02.556Z,75.52
2023-03-04T09:31:32.950Z,74.86
2023-03-04T09:34:01.331Z,75.31
2023-03-04T09:36:29.653Z,74.64
2023-03-04T09:39:00.482Z,74.93
2023-03-04T09:41:38.823Z,74.63
2023-03-04T09:44:13.426Z,74.31
2023-03-04T09:46:44.806Z,74.31
2023-03-04T09:49:13.665Z,74.42
2023-03-04T09:51:47.210Z,74.84
2023-03-04T09:54:19.900Z,74.57
2023-03-04T09:56:50.644Z,75.35
2023-03-04T09:59:24.664Z,75.25
2023-03-04T10:01:56.024Z,75.67
2023-03-04T10:04:32.339Z,75.05
2023-03-04T10:07:01.684Z,74.75
2023-03-04T10:09:31.435Z,74.22
2023-03-04T10:12:02.768Z,73.90
2023-03-04T10:14:39.856Z,73.21
2023-03-04T10:17:15.058Z,73.08
2023-03-04T10:19:52.783Z,72.74
2023-03-04T10:22:27.193Z,74.30
2023-03-04T10:24:57.636Z,75.19
2023-03-04T10:27:26.044Z,74.95
2023-03-04T10:29:54.306Z,73.91
2023-03-04T10:32:24.265Z,73.81
2023-03-04T10:34:52.333Z,73.56
2023-03-04T10:37:20.590Z,72.44
2023-03-04T10:39:49.521Z,72.79
2023-03-04T10:42:27.729Z,72.98
2023-03-04T10:44:57.608Z,72.67
2023-03-04T10:47:28.779Z,72.69
2023-03-04T10:49:58.291Z,72.83
2023-03-04T10:52:30.002Z,72.79
2023-03-04T10:54:59.788Z,72.23
2023-03-04T10:57:34.351Z,72.36
2023-03-04T11:00:02.648Z,71.83
2023-03-04T11:02:34.818Z,71.32
2023-03-04T11:05:18.640Z,71.07
2023-03-04T11:07:55.657Z,70.50
2023-03-04T11:10:26.695Z,69.97
2023-03-04T11:12:58.079Z,69.63
2023-03-04T11:15:28.260Z,69.40
2023-03-04T11:18:00.496Z,68.94
2023-03-04T11:20:33.288Z,68.18
2023-03-04T11:23:05.151Z,68.59
2023-03-04T11:25:36.208Z,68.35
2023-03-04T11:28:08.797Z,68.26
2023-03-04T11:30:42.155Z,68.33
2023-03-04T11:33:16.572Z,68.35
2023-03-04T11:35:53.292Z,67.37
2023-03-04T11:38:23.113Z,67.12
2023-03-04T11:40:54.384Z,67.53
2023-03-04T11:43:26.730Z,67.18
2023-03-04T11:46:33.399Z,66.90
2023-03-04T11:49:12.424Z,65.73
2023-03-04T11:51:44.947Z,65.32
2023-03-04T11:54:18.824Z,64.83
2023-03-04T11:56:49.451Z,64.69
2023-03-04T11:59:49.488Z,64.49
2023-03-04T12:02:20.374Z,63.21
2023-03-04T12:05:17.410Z,62.27
2023-03-04T12:07:58.934Z,62.76
2023-03-04T12:10:30.243Z,62.81
2023-03-04T12:13:11.064Z,62.78
2023-03-04T12:15:46.942Z,62.04
2023-03-04T12:18:43.732Z,62.05
2023-03-04T12:21:21.009Z,60.76
2023-03-04T12:24:04.302Z,60.85
2023-03-04T12:26:37.859Z,60.75
2023-03-04T12:29:08.942Z,60.76
2023-03-04T12:31:39.927Z,59.76
2023-03-04T12:34:33.569Z,59.76
2023-03-04T12:37:22.997Z,59.35
2023-03-04T12:40:01.481Z,59.88
2023-03-04T12:42:39.029Z,59.69
2023-03-04T12:45:17.803Z,59.79
2023-03-04T12:47:53.415Z,59.13
2023-03-04T12:50:31.419Z,59.33
2023-03-04T12:53:10.954Z,59.01
2023-03-04T12:55:40.456Z,59.08
2023-03-04T12:58:16.358Z,58.96
2023-03-04T13:00:50.587Z,59.68
2023-03-04T13:03:23.313Z,60.15
2023-03-04T13:06:28.048Z,59.78
2023-03-04T13:09:02.139Z,59.71
2023-03-04T13:11:52.696Z,59.95
2023-03-04T13:14:29.571Z,59.56
2023-03-04T13:17:01.526Z,59.64
2023-03-04T13:19:52.546Z,59.74
2023-03-04T13:22:34.216Z,60.39
2023-03-04T13:25:37.759Z,60.45
2023-03-04T13:28:33.000Z,60.58
2023-03-04T13:31:14.981Z,60.72
2023-03-04T13:34:01.948Z,60.06
2023-03-04T13:36:55.919Z,59.98
2023-03-04T13:39:34.792Z,60.20
2023-03-04T13:42:06.540Z,59.96
2023-03-04T13:45:04.920Z,59.76
2023-03-04T13:47:48.618Z,60.15
2023-03-04T13:50:31.641Z,60.16
2023-03-04T13:53:02.615Z,60.25
2023-03-04T13:55:39.196Z,60.44
2023-03-04T13:58:24.232Z,60.43
2023-03-04T14:00:55.132Z,59.97
2023-03-04T14:03:25.812Z,60.26
2023-03-04T14:06:17.890Z,60.20
2023-03-04T14:08:46.904Z,59.78
2023-03-04T14:11:16.883Z,60.00
2023-03-04T14:13:46.593Z,60.23
2023-03-04T14:16:20.901Z,60.57
2023-03-04T14:18:59.076Z,60.78
2023-03-04T14:21:27.146Z,60.76
2023-03-04T14:24:07.374Z,60.82
2023-03-04T14:26:35.989Z,60.62
2023-03-04T14:29:26.971Z,61.01
2023-03-04T14:31:55.721Z,61.07
2023-03-04T14:34:31.977Z,60.80
2023-03-04T14:37:00.190Z,60.72
2023-03-04T14:39:31.460Z,60.67
2023-03-04T14:42:02.347Z,60.56
2023-03-04T14:44:36.172Z,60.54
2023-03-04T14:47:11.380Z,60.35
2023-03-04T14:49:40.318Z,60.57
2023-03-04T14:52:13.769Z,60.99
2023-03-04T14:54:42.870Z,61.51
2023-03-04T14:57:26.346Z,61.99
2023-03-04T14:59:56.203Z,62.05
2023-03-04T15:02:31.467Z,62.29
2023-03-04T15:05:01.829Z,62.10
2023-03-04T15:07:33.200Z,62.20
2023-03-04T15:10:04.471Z,62.59
2023-03-04T15:12:34.191Z,63.17
2023-03-04T15:15:05.841Z,64.29
2023-03-04T15:17:38.643Z,64.11
2023-03-04T15:20:27.204Z,62.83
2023-03-04T15:23:00.825Z,62.30
2023-03-04T15:25:29.738Z,63.40
2023-03-04T15:28:00.005Z,63.47
2023-03-04T15:30:33.217Z,63.85
2023-03-04T15:33:01.801Z,64.09
2023-03-04T15:35:32.555Z,63.35
2023-03-04T15:38:01.534Z,63.42
2023-03-04T15:40:32.357Z,64.36
2023-03-04T15:43:02.870Z,64.05
2023-03-04T15:45:35.935Z,64.55
2023-03-04T15:48:07.774Z,63.96
2023-03-04T15:50:37.590Z,63.88
2023-03-04T15:53:08.283Z,64.36
2023-03-04T15:55:36.992Z,64.78
2023-03-04T15:58:05.553Z,65.43
2023-03-04T16:00:35.276Z,64.94
2023-03-04T16:03:03.385Z,64.74
2023-03-04T16:05:32.122Z,64.52
2023-03-04T16:08:00.189Z,64.42
2023-03-04T16:10:30.663Z,65.10
2023-03-04T16:12:58.750Z,64.56
2023-03-04T16:15:28.954Z,64.40
2023-03-04T16:17:59.656Z,64.60
2023-03-04T16:20:29.928Z,64.47
2023-03-04T16:23:00.066Z,65.04
2023-03-04T16:25:30.171Z,65.29
2023-03-04T16:28:02.650Z,65.07
2023-03-04T16:30:31.484Z,65.44
2023-03-04T16:33:00.858Z,65.63
2023-03-04T16:35:29.714Z,65.52
2023-03-04T16:37:58.511Z,65.71
2023-03-04T16:40:29.690Z,65.34
2023-03-04T16:42:58.103Z,64.82
2023-03-04T16:45:30.114Z,64.82
2023-03-04T16:47:59.549Z,65.51
2023-03-04T16:50:30.335Z,65.34
2023-03-04T16:52:58.339Z,65.86
2023-03-04T16:55:28.523Z,65.66
2023-03-04T16:57:57.679Z,65.64
2023-03-04T17:00:28.982Z,65.84
2023-03-04T17:13:26.179Z,65.82
2023-03-04T17:15:54.621Z,65.69
2023-03-04T17:18:22.687Z,65.88
2023-03-04T17:20:57.228Z,65.68
2023-03-04T17:23:39.727Z,65.57
2023-03-04T17:26:09.189Z,65.15
2023-03-04T17:28:39.065Z,65.15
2023-03-04T17:31:40.445Z,65.39
2023-03-04T17:34:14.546Z,64.59
2023-03-04T17:36:42.954Z,64.83
2023-03-04T17:39:12.389Z,64.97
2023-03-04T17:41:40.990Z,65.36
2023-03-04T17:44:11.494Z,65.20
2023-03-04T17:46:40.153Z,65.68
2023-03-04T17:49:08.244Z,65.72
2023-03-04T17:51:37.927Z,65.98
2023-03-04T17:54:08.413Z,65.88
2023-03-04T17:56:38.001Z,65.68
2023-03-04T17:59:09.721Z,65.75
2023-03-04T18:01:39.711Z,65.84
2023-03-04T18:04:08.290Z,65.85
2023-03-04T18:06:36.709Z,65.75
2023-03-04T18:09:05.158Z,65.48
2023-03-04T18:11:34.688Z,65.46
2023-03-04T18:14:02.825Z,65.16
2023-03-04T18:16:31.560Z,65.29
2023-03-04T18:19:02.185Z,65.56
2023-03-04T18:21:30.898Z,64.96
2023-03-04T18:23:59.505Z,64.98
2023-03-04T18:26:28.221Z,64.95
2023-03-04T18:28:57.034Z,65.15
2023-03-04T18:31:31.064Z,65.01
2023-03-04T18:34:02.200Z,65.16
2023-03-04T18:36:30.636Z,65.18
2023-03-04T18:38:59.445Z,64.81
2023-03-04T18:41:28.321Z,65.02
2023-03-04T18:43:56.964Z,64.83
2023-03-04T18:46:31.908Z,65.07
2023-03-04T18:49:04.296Z,65.28
2023-03-04T18:51:32.744Z,65.11
2023-03-04T18:54:00.764Z,64.96
2023-03-04T18:56:37.611Z,65.29
2023-03-04T18:59:08.738Z,65.11
2023-03-04T19:01:37.937Z,64.91
2023-03-04T19:04:07.476Z,65.05
2023-03-04T19:06:36.383Z,65.04
2023-03-04T19:09:05.387Z,64.76
2023-03-04T19:11:33.646Z,64.68
2023-03-04T19:14:01.840Z,64.94
2023-03-04T19:16:30.308Z,64.71
2023-03-04T19:18:58.546Z,64.75
2023-03-04T19:21:28.274Z,64.88
2023-03-04T19:23:56.324Z,65.00
2023-03-04T19:26:24.704Z,64.73
2023-03-04T19:28:52.712Z,64.75
2023-03-04T19:31:21.112Z,65.03
2023-03-04T19:33:49.279Z,64.98
2023-03-04T19:36:17.590Z,65.22
2023-03-04T19:38:47.011Z,64.95
2023-03-04T19:41:17.165Z,65.21
2023-03-04T19:43:46.035Z,65.29
2023-03-04T19:46:15.222Z,65.43
2023-03-04T19:48:45.031Z,65.53
2023-03-04T19:51:16.709Z,65.62
2023-03-04T19:53:44.972Z,65.45
2023-03-04T19:56:14.757Z,65.29
2023-03-04T19:58:42.853Z,65.60
2023-03-04T20:01:21.184Z,65.65
2023-03-04T20:03:49.421Z,65.52
2023-03-04T20:06:17.757Z,65.41
2023-03-04T20:08:45.805Z,65.49
2023-03-04T20:11:15.530Z,65.56
2023-03-04T20:13:43.752Z,65.47
2023-03-04T20:16:12.694Z,65.75
2023-03-04T20:18:41.044Z,65.45
2023-03-04T20:21:12.493Z,65.70
2023-03-04T20:23:40.667Z,65.30
2023-03-04T20:26:09.007Z,65.46
2023-03-04T20:28:51.636Z,65.45
2023-03-04T20:31:22.650Z,65.48
2023-03-04T20:33:51.603Z,65.50
2023-03-04T20:36:21.160Z,65.23
2023-03-04T20:38:51.264Z,65.21
2023-03-04T20:41:25.318Z,65.22
2023-03-04T20:43:54.815Z,65.45
2023-03-04T20:46:32.317Z,65.47
2023-03-04T20:49:02.238Z,65.71
2023-03-04T20:51:31.871Z,65.69
2023-03-04T20:54:00.830Z,65.45
2023-03-04T20:56:29.606Z,65.54
2023-03-04T20:58:59.448Z,65.40
2023-03-04T21:01:27.875Z,65.60
2023-03-04T21:03:56.089Z,65.71
2023-03-04T21:06:25.176Z,65.84
2023-03-04T21:08:53.506Z,66.00
2023-03-04T21:11:23.339Z,66.17
2023-03-04T21:13:55.997Z,66.52
2023-03-04T21:16:27.206Z,67.21
2023-03-04T21:18:55.511Z,67.73
2023-03-04T21:21:26.035Z,68.49
2023-03-04T21:23:55.406Z,68.56
2023-03-04T21:26:24.151Z,68.48
2023-03-04T21:28:52.622Z,68.06
2023-03-04T21:31:23.020Z,68.25
2023-03-04T21:33:53.138Z,68.30
2023-03-04T21:36:22.058Z,68.26
2023-03-04T21:38:50.575Z,68.66
2023-03-04T21:41:21.420Z,68.87
2023-03-04T21:43:49.932Z,68.29
2023-03-04T21:46:19.070Z,68.41
2023-03-04T21:48:48.214Z,68.42
2023-03-04T21:51:19.725Z,68.42
2023-03-04T21:53:47.952Z,68.41
2023-03-04T21:56:16.329Z,68.36
2023-03-04T21:58:45.809Z,68.33
2023-03-04T22:01:15.417Z,68.53
2023-03-04T22:03:43.757Z,68.10
2023-03-04T22:06:13.373Z,67.55
2023-03-04T22:08:42.952Z,67.85
2023-03-04T22:11:12.461Z,68.49
2023-03-04T22:13:40.823Z,68.01
2023-03-04T22:16:10.587Z,68.43
2023-03-04T22:18:40.658Z,68.79
2023-03-04T22:21:11.054Z,68.64
2023-03-04T22:23:39.699Z,68.66
2023-03-04T22:26:12.569Z,68.74
2023-03-04T22:28:41.266Z,68.52
2023-03-04T22:31:21.212Z,68.58
2023-03-04T22:33:49.305Z,68.85
2023-03-04T22:36:17.611Z,68.81
2023-03-04T22:38:45.805Z,68.88
2023-03-04T22:41:16.820Z,68.92
2023-03-04T22:43:49.748Z,69.10
2023-03-04T22:46:20.637Z,69.09
2023-03-04T22:48:49.075Z,68.64
2023-03-04T22:51:17.407Z,69.47
2023-03-04T22:53:45.800Z,69.63
2023-03-04T22:56:15.653Z,68.55
2023-03-04T22:58:44.331Z,67.65
2023-03-04T23:01:14.359Z,67.43
2023-03-04T23:03:44.198Z,67.61
2023-03-04T23:06:14.432Z,67.48
2023-03-04T23:08:44.831Z,67.59
2023-03-04T23:11:16.980Z,67.61
2023-03-04T23:13:45.188Z,67.60
2023-03-04T23:16:14.266Z,67.93
2023-03-04T23:18:43.388Z,67.68
2023-03-04T23:21:14.595Z,67.92
2023-03-04T23:23:43.263Z,68.04
2023-03-04T23:26:16.434Z,67.88
2023-03-04T23:28:44.935Z,67.71
2023-03-04T23:31:14.627Z,67.88
2023-03-04T23:33:43.352Z,67.96
2023-03-04T23:36:15.225Z,67.74
2023-03-04T23:38:44.346Z,67.70
2023-03-04T23:41:13.643Z,67.70
2023-03-04T23:43:43.270Z,67.72
2023-03-04T23:46:12.393Z,67.73
2023-03-04T23:48:43.124Z,68.00
2023-03-04T23:51:11.567Z,67.67
2023-03-04T23:53:39.762Z,67.80
2023-03-04T23:56:09.190Z,67.64
2023-03-04T23:58:37.581Z,67.33
